Punta Gorda, Florida
Current Conditions -  °F | °C
As of 1:53 PM on Friday 28 Nov 2014 (Local Time) from KPGD Reporting Station
Clear Clear  
Wind Chill: 65°   Ceiling: Unl
Heat Index: 65°   Visibility: 10mi
Dew Point: 36°   Wind: 12mph
Humidity: 34%   Direction: 30°NNE
Pressure: 30.25"   Gusts: NA
Location:  26.93°N, 82.05°W
Report Text: KPGD 281853Z 03010KT 10SM CLR 18/02 A3025 RMK AO2 SLP243 T01830022
Loading
Personal Weather Stations






























Interactive Weather Map New forecast layout! Learn more

10-Day Weather Forecast

Advertisements
Track Severe Weather on mobile